sensor_id;sensor_type;location;lat;lon;timestamp;P1;durP1;ratioP1;P2;durP2;ratioP2
65459;SDS011;52058;49.822;6.754;2023-07-29T00:01:16;1.30;;;1.20;;
65459;SDS011;52058;49.822;6.754;2023-07-29T00:03:43;2.00;;;1.48;;
65459;SDS011;52058;49.822;6.754;2023-07-29T00:06:10;2.88;;;1.50;;
65459;SDS011;52058;49.822;6.754;2023-07-29T00:08:36;4.43;;;1.80;;
65459;SDS011;52058;49.822;6.754;2023-07-29T00:11:03;1.60;;;1.50;;
65459;SDS011;52058;49.822;6.754;2023-07-29T00:13:31;1.42;;;1.30;;
65459;SDS011;52058;49.822;6.754;2023-07-29T00:15:58;3.70;;;1.60;;
65459;SDS011;52058;49.822;6.754;2023-07-29T00:18:24;3.40;;;1.60;;
65459;SDS011;52058;49.822;6.754;2023-07-29T00:20:51;1.90;;;1.58;;
65459;SDS011;52058;49.822;6.754;2023-07-29T00:23:17;2.28;;;1.40;;
65459;SDS011;52058;49.822;6.754;2023-07-29T00:25:45;1.88;;;1.50;;
65459;SDS011;52058;49.822;6.754;2023-07-29T00:28:11;3.15;;;1.60;;
65459;SDS011;52058;49.822;6.754;2023-07-29T00:30:40;3.50;;;1.60;;
65459;SDS011;52058;49.822;6.754;2023-07-29T00:33:06;2.25;;;1.70;;
65459;SDS011;52058;49.822;6.754;2023-07-29T00:35:33;4.78;;;1.70;;
65459;SDS011;52058;49.822;6.754;2023-07-29T00:38:00;2.97;;;1.60;;
65459;SDS011;52058;49.822;6.754;2023-07-29T00:40:28;2.80;;;1.70;;
65459;SDS011;52058;49.822;6.754;2023-07-29T00:42:55;1.67;;;1.58;;
65459;SDS011;52058;49.822;6.754;2023-07-29T00:45:22;2.42;;;1.50;;
65459;SDS011;52058;49.822;6.754;2023-07-29T00:47:52;1.90;;;1.73;;
65459;SDS011;52058;49.822;6.754;2023-07-29T00:50:19;3.85;;;1.80;;
65459;SDS011;52058;49.822;6.754;2023-07-29T00:52:46;3.25;;;1.75;;
65459;SDS011;52058;49.822;6.754;2023-07-29T00:55:13;4.43;;;2.05;;
65459;SDS011;52058;49.822;6.754;2023-07-29T00:57:39;1.88;;;1.73;;
65459;SDS011;52058;49.822;6.754;2023-07-29T01:00:07;3.25;;;1.70;;
65459;SDS011;52058;49.822;6.754;2023-07-29T01:02:35;1.50;;;1.40;;
65459;SDS011;52058;49.822;6.754;2023-07-29T01:05:03;2.67;;;1.60;;
65459;SDS011;52058;49.822;6.754;2023-07-29T01:07:33;1.40;;;1.30;;
65459;SDS011;52058;49.822;6.754;2023-07-29T01:10:07;2.05;;;1.50;;
65459;SDS011;52058;49.822;6.754;2023-07-29T01:12:42;3.25;;;1.40;;
65459;SDS011;52058;49.822;6.754;2023-07-29T01:15:16;1.73;;;1.45;;
65459;SDS011;52058;49.822;6.754;2023-07-29T01:17:46;2.67;;;1.50;;
65459;SDS011;52058;49.822;6.754;2023-07-29T01:20:15;2.42;;;1.30;;
65459;SDS011;52058;49.822;6.754;2023-07-29T01:22:45;2.20;;;1.55;;
65459;SDS011;52058;49.822;6.754;2023-07-29T01:25:13;1.42;;;1.33;;
65459;SDS011;52058;49.822;6.754;2023-07-29T01:27:41;3.25;;;1.33;;
65459;SDS011;52058;49.822;6.754;2023-07-29T01:30:09;1.90;;;1.30;;
65459;SDS011;52058;49.822;6.754;2023-07-29T01:32:38;3.03;;;1.33;;
65459;SDS011;52058;49.822;6.754;2023-07-29T01:35:11;1.83;;;1.30;;
65459;SDS011;52058;49.822;6.754;2023-07-29T01:37:47;4.38;;;1.33;;
65459;SDS011;52058;49.822;6.754;2023-07-29T01:40:16;2.03;;;1.30;;
65459;SDS011;52058;49.822;6.754;2023-07-29T01:42:44;1.27;;;1.13;;
65459;SDS011;52058;49.822;6.754;2023-07-29T01:45:11;1.67;;;1.58;;
65459;SDS011;52058;49.822;6.754;2023-07-29T01:47:38;2.22;;;1.67;;
65459;SDS011;52058;49.822;6.754;2023-07-29T01:50:07;2.30;;;1.55;;
65459;SDS011;52058;49.822;6.754;2023-07-29T01:52:34;1.40;;;1.30;;
65459;SDS011;52058;49.822;6.754;2023-07-29T01:55:01;1.30;;;1.20;;
65459;SDS011;52058;49.822;6.754;2023-07-29T01:57:29;1.58;;;1.42;;
65459;SDS011;52058;49.822;6.754;2023-07-29T01:59:56;2.55;;;1.40;;
65459;SDS011;52058;49.822;6.754;2023-07-29T02:02:23;3.25;;;1.85;;
65459;SDS011;52058;49.822;6.754;2023-07-29T02:04:50;1.67;;;1.58;;
65459;SDS011;52058;49.822;6.754;2023-07-29T02:07:17;1.75;;;1.50;;
65459;SDS011;52058;49.822;6.754;2023-07-29T02:09:44;1.50;;;1.40;;
65459;SDS011;52058;49.822;6.754;2023-07-29T02:12:11;1.77;;;1.58;;
65459;SDS011;52058;49.822;6.754;2023-07-29T02:14:39;1.73;;;1.38;;
65459;SDS011;52058;49.822;6.754;2023-07-29T02:17:06;1.80;;;1.60;;
65459;SDS011;52058;49.822;6.754;2023-07-29T02:19:33;1.50;;;1.40;;
65459;SDS011;52058;49.822;6.754;2023-07-29T02:22:00;1.95;;;1.70;;
65459;SDS011;52058;49.822;6.754;2023-07-29T02:24:27;2.30;;;1.30;;
65459;SDS011;52058;49.822;6.754;2023-07-29T02:26:54;4.35;;;1.60;;
65459;SDS011;52058;49.822;6.754;2023-07-29T02:29:20;3.30;;;1.45;;
65459;SDS011;52058;49.822;6.754;2023-07-29T02:31:48;3.45;;;1.75;;
65459;SDS011;52058;49.822;6.754;2023-07-29T02:34:15;2.40;;;1.58;;
65459;SDS011;52058;49.822;6.754;2023-07-29T02:36:42;1.90;;;1.70;;
65459;SDS011;52058;49.822;6.754;2023-07-29T02:39:10;2.22;;;1.73;;
65459;SDS011;52058;49.822;6.754;2023-07-29T02:41:37;2.63;;;1.50;;
65459;SDS011;52058;49.822;6.754;2023-07-29T02:44:04;2.30;;;1.60;;
65459;SDS011;52058;49.822;6.754;2023-07-29T02:46:31;4.03;;;1.55;;
65459;SDS011;52058;49.822;6.754;2023-07-29T02:48:59;8.75;;;2.20;;
65459;SDS011;52058;49.822;6.754;2023-07-29T02:51:28;3.35;;;1.60;;
65459;SDS011;52058;49.822;6.754;2023-07-29T02:53:54;1.77;;;1.67;;
65459;SDS011;52058;49.822;6.754;2023-07-29T02:56:21;3.38;;;1.85;;
65459;SDS011;52058;49.822;6.754;2023-07-29T02:58:48;3.72;;;1.88;;
65459;SDS011;52058;49.822;6.754;2023-07-29T03:01:17;2.00;;;1.80;;
65459;SDS011;52058;49.822;6.754;2023-07-29T03:03:43;4.47;;;1.70;;
65459;SDS011;52058;49.822;6.754;2023-07-29T03:06:13;2.30;;;1.80;;
65459;SDS011;52058;49.822;6.754;2023-07-29T03:08:40;2.70;;;1.80;;
65459;SDS011;52058;49.822;6.754;2023-07-29T03:11:08;1.90;;;1.70;;
65459;SDS011;52058;49.822;6.754;2023-07-29T03:13:36;2.88;;;2.00;;
65459;SDS011;52058;49.822;6.754;2023-07-29T03:16:06;2.35;;;1.70;;
65459;SDS011;52058;49.822;6.754;2023-07-29T03:18:33;3.05;;;1.85;;
65459;SDS011;52058;49.822;6.754;2023-07-29T03:21:00;2.47;;;1.90;;
65459;SDS011;52058;49.822;6.754;2023-07-29T03:23:28;4.03;;;1.80;;
65459;SDS011;52058;49.822;6.754;2023-07-29T03:25:56;1.95;;;1.67;;
65459;SDS011;52058;49.822;6.754;2023-07-29T03:28:23;2.47;;;1.63;;
65459;SDS011;52058;49.822;6.754;2023-07-29T03:30:52;3.17;;;2.03;;
65459;SDS011;52058;49.822;6.754;2023-07-29T03:33:19;5.50;;;1.70;;
65459;SDS011;52058;49.822;6.754;2023-07-29T03:35:45;2.75;;;1.85;;
65459;SDS011;52058;49.822;6.754;2023-07-29T03:38:12;3.25;;;2.17;;
65459;SDS011;52058;49.822;6.754;2023-07-29T03:40:41;2.35;;;1.77;;
65459;SDS011;52058;49.822;6.754;2023-07-29T03:43:08;2.70;;;1.58;;
65459;SDS011;52058;49.822;6.754;2023-07-29T03:45:35;3.20;;;1.90;;
65459;SDS011;52058;49.822;6.754;2023-07-29T03:48:03;3.15;;;2.00;;
65459;SDS011;52058;49.822;6.754;2023-07-29T03:50:32;3.63;;;2.13;;
65459;SDS011;52058;49.822;6.754;2023-07-29T03:53:00;4.00;;;2.15;;
65459;SDS011;52058;49.822;6.754;2023-07-29T03:55:27;3.35;;;2.13;;
65459;SDS011;52058;49.822;6.754;2023-07-29T03:57:56;3.60;;;2.00;;
65459;SDS011;52058;49.822;6.754;2023-07-29T04:00:22;4.32;;;2.13;;
65459;SDS011;52058;49.822;6.754;2023-07-29T04:02:49;4.68;;;2.50;;
65459;SDS011;52058;49.822;6.754;2023-07-29T04:05:16;2.65;;;2.00;;
65459;SDS011;52058;49.822;6.754;2023-07-29T04:07:43;3.40;;;2.40;;
65459;SDS011;52058;49.822;6.754;2023-07-29T04:10:10;2.90;;;2.47;;
65459;SDS011;52058;49.822;6.754;2023-07-29T04:12:36;4.32;;;2.70;;
65459;SDS011;52058;49.822;6.754;2023-07-29T04:15:05;3.53;;;2.63;;
65459;SDS011;52058;49.822;6.754;2023-07-29T04:17:32;4.00;;;2.30;;
65459;SDS011;52058;49.822;6.754;2023-07-29T04:19:59;3.70;;;2.58;;
65459;SDS011;52058;49.822;6.754;2023-07-29T04:22:26;4.78;;;2.33;;
65459;SDS011;52058;49.822;6.754;2023-07-29T04:24:52;4.13;;;3.00;;
65459;SDS011;52058;49.822;6.754;2023-07-29T04:27:19;3.65;;;3.13;;
65459;SDS011;52058;49.822;6.754;2023-07-29T04:29:45;3.92;;;2.95;;
65459;SDS011;52058;49.822;6.754;2023-07-29T04:32:13;2.67;;;2.45;;
65459;SDS011;52058;49.822;6.754;2023-07-29T04:34:39;5.70;;;3.05;;
65459;SDS011;52058;49.822;6.754;2023-07-29T04:37:06;3.42;;;2.65;;
65459;SDS011;52058;49.822;6.754;2023-07-29T04:39:33;4.45;;;3.03;;
65459;SDS011;52058;49.822;6.754;2023-07-29T04:41:59;4.75;;;3.15;;
65459;SDS011;52058;49.822;6.754;2023-07-29T04:44:26;3.28;;;2.67;;
65459;SDS011;52058;49.822;6.754;2023-07-29T04:46:53;4.20;;;2.80;;
65459;SDS011;52058;49.822;6.754;2023-07-29T04:49:21;6.38;;;2.58;;
65459;SDS011;52058;49.822;6.754;2023-07-29T04:51:47;4.95;;;2.50;;
65459;SDS011;52058;49.822;6.754;2023-07-29T04:54:14;2.80;;;2.40;;
65459;SDS011;52058;49.822;6.754;2023-07-29T04:56:41;2.90;;;2.17;;
65459;SDS011;52058;49.822;6.754;2023-07-29T04:59:07;3.55;;;1.90;;
65459;SDS011;52058;49.822;6.754;2023-07-29T05:01:34;3.97;;;2.30;;
65459;SDS011;52058;49.822;6.754;2023-07-29T05:04:00;2.75;;;2.40;;
65459;SDS011;52058;49.822;6.754;2023-07-29T05:06:29;3.97;;;2.33;;
65459;SDS011;52058;49.822;6.754;2023-07-29T05:08:56;3.28;;;2.00;;
65459;SDS011;52058;49.822;6.754;2023-07-29T05:11:23;3.25;;;2.30;;
65459;SDS011;52058;49.822;6.754;2023-07-29T05:13:50;2.83;;;2.03;;
65459;SDS011;52058;49.822;6.754;2023-07-29T05:16:17;3.60;;;2.33;;
65459;SDS011;52058;49.822;6.754;2023-07-29T05:18:44;2.67;;;2.25;;
65459;SDS011;52058;49.822;6.754;2023-07-29T05:21:10;3.38;;;2.05;;
65459;SDS011;52058;49.822;6.754;2023-07-29T05:23:40;3.05;;;2.10;;
65459;SDS011;52058;49.822;6.754;2023-07-29T05:26:07;3.65;;;2.15;;
65459;SDS011;52058;49.822;6.754;2023-07-29T05:28:33;3.30;;;2.30;;
65459;SDS011;52058;49.822;6.754;2023-07-29T05:31:00;3.58;;;1.98;;
65459;SDS011;52058;49.822;6.754;2023-07-29T05:33:27;2.90;;;2.28;;
65459;SDS011;52058;49.822;6.754;2023-07-29T05:35:53;3.15;;;2.22;;
65459;SDS011;52058;49.822;6.754;2023-07-29T05:38:20;3.75;;;2.00;;
65459;SDS011;52058;49.822;6.754;2023-07-29T05:40:49;3.05;;;2.00;;
65459;SDS011;52058;49.822;6.754;2023-07-29T05:43:16;3.55;;;2.60;;
65459;SDS011;52058;49.822;6.754;2023-07-29T05:45:42;3.13;;;1.98;;
65459;SDS011;52058;49.822;6.754;2023-07-29T05:48:09;5.35;;;1.85;;
65459;SDS011;52058;49.822;6.754;2023-07-29T05:50:35;5.78;;;2.20;;
65459;SDS011;52058;49.822;6.754;2023-07-29T05:53:02;3.75;;;2.28;;
65459;SDS011;52058;49.822;6.754;2023-07-29T05:55:28;2.92;;;1.92;;
65459;SDS011;52058;49.822;6.754;2023-07-29T05:57:56;3.22;;;2.17;;
65459;SDS011;52058;49.822;6.754;2023-07-29T06:00:23;3.15;;;2.20;;
65459;SDS011;52058;49.822;6.754;2023-07-29T06:02:49;2.83;;;1.80;;
65459;SDS011;52058;49.822;6.754;2023-07-29T06:05:16;3.22;;;1.85;;
65459;SDS011;52058;49.822;6.754;2023-07-29T06:07:43;3.05;;;1.90;;
65459;SDS011;52058;49.822;6.754;2023-07-29T06:10:10;3.13;;;1.92;;
65459;SDS011;52058;49.822;6.754;2023-07-29T06:12:37;4.07;;;2.03;;
65459;SDS011;52058;49.822;6.754;2023-07-29T06:15:06;3.15;;;1.95;;
65459;SDS011;52058;49.822;6.754;2023-07-29T06:17:33;5.13;;;1.75;;
65459;SDS011;52058;49.822;6.754;2023-07-29T06:20:00;4.50;;;1.80;;
65459;SDS011;52058;49.822;6.754;2023-07-29T06:22:27;3.63;;;1.80;;
65459;SDS011;52058;49.822;6.754;2023-07-29T06:24:53;2.38;;;1.88;;
65459;SDS011;52058;49.822;6.754;2023-07-29T06:27:20;2.10;;;1.60;;
65459;SDS011;52058;49.822;6.754;2023-07-29T06:29:47;2.90;;;1.35;;
65459;SDS011;52058;49.822;6.754;2023-07-29T06:32:15;2.45;;;1.30;;
65459;SDS011;52058;49.822;6.754;2023-07-29T06:34:41;3.05;;;1.60;;
65459;SDS011;52058;49.822;6.754;2023-07-29T06:37:08;2.60;;;1.40;;
65459;SDS011;52058;49.822;6.754;2023-07-29T06:39:34;1.90;;;1.58;;
65459;SDS011;52058;49.822;6.754;2023-07-29T06:42:01;1.88;;;1.38;;
65459;SDS011;52058;49.822;6.754;2023-07-29T06:44:28;1.83;;;1.13;;
65459;SDS011;52058;49.822;6.754;2023-07-29T06:46:54;1.40;;;1.10;;
65459;SDS011;52058;49.822;6.754;2023-07-29T06:49:22;1.27;;;1.17;;
65459;SDS011;52058;49.822;6.754;2023-07-29T06:51:49;2.58;;;1.50;;
65459;SDS011;52058;49.822;6.754;2023-07-29T06:54:16;1.60;;;1.05;;
65459;SDS011;52058;49.822;6.754;2023-07-29T06:56:42;1.50;;;1.00;;
65459;SDS011;52058;49.822;6.754;2023-07-29T06:59:09;2.67;;;0.90;;
65459;SDS011;52058;49.822;6.754;2023-07-29T07:01:36;4.03;;;1.30;;
65459;SDS011;52058;49.822;6.754;2023-07-29T07:04:02;1.48;;;1.10;;
65459;SDS011;52058;49.822;6.754;2023-07-29T07:06:30;1.45;;;0.90;;
65459;SDS011;52058;49.822;6.754;2023-07-29T07:08:57;2.55;;;0.90;;
65459;SDS011;52058;49.822;6.754;2023-07-29T07:11:24;1.02;;;0.98;;
65459;SDS011;52058;49.822;6.754;2023-07-29T07:13:50;1.58;;;0.80;;
65459;SDS011;52058;49.822;6.754;2023-07-29T07:16:17;1.17;;;1.00;;
65459;SDS011;52058;49.822;6.754;2023-07-29T07:18:43;3.58;;;1.10;;
65459;SDS011;52058;49.822;6.754;2023-07-29T07:21:10;1.50;;;0.82;;
65459;SDS011;52058;49.822;6.754;2023-07-29T07:23:38;2.17;;;0.95;;
65459;SDS011;52058;49.822;6.754;2023-07-29T07:26:04;1.10;;;0.82;;
65459;SDS011;52058;49.822;6.754;2023-07-29T07:28:31;0.82;;;0.82;;
65459;SDS011;52058;49.822;6.754;2023-07-29T07:30:58;1.08;;;0.80;;
65459;SDS011;52058;49.822;6.754;2023-07-29T07:33:24;1.52;;;1.00;;
65459;SDS011;52058;49.822;6.754;2023-07-29T07:35:51;1.35;;;0.82;;
65459;SDS011;52058;49.822;6.754;2023-07-29T07:38:17;1.13;;;0.93;;
65459;SDS011;52058;49.822;6.754;2023-07-29T07:40:53;1.85;;;0.80;;
65459;SDS011;52058;49.822;6.754;2023-07-29T07:43:20;1.48;;;1.00;;
65459;SDS011;52058;49.822;6.754;2023-07-29T07:45:47;2.05;;;1.00;;
65459;SDS011;52058;49.822;6.754;2023-07-29T07:48:14;2.58;;;1.00;;
65459;SDS011;52058;49.822;6.754;2023-07-29T07:50:41;2.38;;;1.13;;
65459;SDS011;52058;49.822;6.754;2023-07-29T07:53:08;1.88;;;1.25;;
65459;SDS011;52058;49.822;6.754;2023-07-29T07:55:35;1.48;;;1.00;;
65459;SDS011;52058;49.822;6.754;2023-07-29T07:58:02;1.45;;;1.20;;
65459;SDS011;52058;49.822;6.754;2023-07-29T08:00:29;1.60;;;1.40;;
65459;SDS011;52058;49.822;6.754;2023-07-29T08:02:56;1.65;;;1.02;;
65459;SDS011;52058;49.822;6.754;2023-07-29T08:05:23;1.30;;;1.00;;
65459;SDS011;52058;49.822;6.754;2023-07-29T08:07:49;1.20;;;1.10;;
65459;SDS011;52058;49.822;6.754;2023-07-29T08:10:16;1.08;;;0.98;;
65459;SDS011;52058;49.822;6.754;2023-07-29T08:12:42;2.50;;;1.38;;
65459;SDS011;52058;49.822;6.754;2023-07-29T08:15:10;1.85;;;1.15;;
65459;SDS011;52058;49.822;6.754;2023-07-29T08:17:37;2.22;;;1.35;;
65459;SDS011;52058;49.822;6.754;2023-07-29T08:20:04;2.33;;;1.38;;
65459;SDS011;52058;49.822;6.754;2023-07-29T08:22:31;1.40;;;1.30;;
65459;SDS011;52058;49.822;6.754;2023-07-29T08:24:58;2.70;;;1.70;;
65459;SDS011;52058;49.822;6.754;2023-07-29T08:27:24;5.60;;;1.25;;
65459;SDS011;52058;49.822;6.754;2023-07-29T08:29:51;2.42;;;1.70;;
65459;SDS011;52058;49.822;6.754;2023-07-29T08:32:21;3.97;;;1.40;;
65459;SDS011;52058;49.822;6.754;2023-07-29T08:34:47;1.27;;;1.13;;
65459;SDS011;52058;49.822;6.754;2023-07-29T08:37:14;2.58;;;1.55;;
65459;SDS011;52058;49.822;6.754;2023-07-29T08:39:41;6.47;;;1.60;;
65459;SDS011;52058;49.822;6.754;2023-07-29T08:42:08;1.52;;;1.42;;
65459;SDS011;52058;49.822;6.754;2023-07-29T08:44:41;1.52;;;1.30;;
65459;SDS011;52058;49.822;6.754;2023-07-29T08:47:09;1.30;;;1.20;;
65459;SDS011;52058;49.822;6.754;2023-07-29T08:49:37;1.75;;;1.40;;
65459;SDS011;52058;49.822;6.754;2023-07-29T08:52:04;1.35;;;1.20;;
65459;SDS011;52058;49.822;6.754;2023-07-29T08:54:32;1.38;;;1.27;;
65459;SDS011;52058;49.822;6.754;2023-07-29T08:56:59;3.10;;;1.48;;
65459;SDS011;52058;49.822;6.754;2023-07-29T08:59:26;4.75;;;1.45;;
65459;SDS011;52058;49.822;6.754;2023-07-29T09:01:54;1.95;;;1.20;;
65459;SDS011;52058;49.822;6.754;2023-07-29T09:04:22;2.78;;;1.20;;
65459;SDS011;52058;49.822;6.754;2023-07-29T09:06:51;3.35;;;1.50;;
65459;SDS011;52058;49.822;6.754;2023-07-29T09:09:20;3.67;;;1.40;;
65459;SDS011;52058;49.822;6.754;2023-07-29T09:11:47;1.77;;;1.27;;
65459;SDS011;52058;49.822;6.754;2023-07-29T09:14:14;3.30;;;1.40;;
65459;SDS011;52058;49.822;6.754;2023-07-29T09:16:41;1.20;;;1.00;;
65459;SDS011;52058;49.822;6.754;2023-07-29T09:19:07;4.80;;;1.40;;
65459;SDS011;52058;49.822;6.754;2023-07-29T09:21:34;1.70;;;1.38;;
65459;SDS011;52058;49.822;6.754;2023-07-29T09:24:06;1.83;;;1.40;;
65459;SDS011;52058;49.822;6.754;2023-07-29T09:26:33;1.85;;;1.38;;
65459;SDS011;52058;49.822;6.754;2023-07-29T09:29:00;2.42;;;1.48;;
65459;SDS011;52058;49.822;6.754;2023-07-29T09:31:27;1.63;;;1.50;;
65459;SDS011;52058;49.822;6.754;2023-07-29T09:33:55;2.45;;;1.42;;
65459;SDS011;52058;49.822;6.754;2023-07-29T09:36:23;2.50;;;1.67;;
65459;SDS011;52058;49.822;6.754;2023-07-29T09:38:51;2.38;;;1.15;;
65459;SDS011;52058;49.822;6.754;2023-07-29T09:41:20;1.25;;;1.15;;
65459;SDS011;52058;49.822;6.754;2023-07-29T09:43:51;2.13;;;1.27;;
65459;SDS011;52058;49.822;6.754;2023-07-29T09:46:23;1.70;;;1.60;;
65459;SDS011;52058;49.822;6.754;2023-07-29T09:48:52;2.20;;;1.38;;
65459;SDS011;52058;49.822;6.754;2023-07-29T09:51:19;2.85;;;1.30;;
65459;SDS011;52058;49.822;6.754;2023-07-29T09:53:46;1.95;;;1.10;;
65459;SDS011;52058;49.822;6.754;2023-07-29T09:56:14;1.63;;;1.10;;
65459;SDS011;52058;49.822;6.754;2023-07-29T09:58:43;1.33;;;1.17;;
65459;SDS011;52058;49.822;6.754;2023-07-29T10:01:11;0.93;;;0.93;;
65459;SDS011;52058;49.822;6.754;2023-07-29T10:03:38;1.52;;;1.10;;
65459;SDS011;52058;49.822;6.754;2023-07-29T10:06:06;1.02;;;0.93;;
65459;SDS011;52058;49.822;6.754;2023-07-29T10:08:33;1.63;;;1.13;;
65459;SDS011;52058;49.822;6.754;2023-07-29T10:11:04;1.00;;;0.90;;
65459;SDS011;52058;49.822;6.754;2023-07-29T10:13:32;1.65;;;1.00;;
65459;SDS011;52058;49.822;6.754;2023-07-29T10:16:01;1.60;;;1.20;;
65459;SDS011;52058;49.822;6.754;2023-07-29T10:18:28;1.70;;;1.00;;
65459;SDS011;52058;49.822;6.754;2023-07-29T10:20:56;1.30;;;1.20;;
65459;SDS011;52058;49.822;6.754;2023-07-29T10:23:24;1.15;;;1.05;;
65459;SDS011;52058;49.822;6.754;2023-07-29T10:25:54;1.20;;;1.10;;
65459;SDS011;52058;49.822;6.754;2023-07-29T10:30:51;1.48;;;1.15;;
65459;SDS011;52058;49.822;6.754;2023-07-29T10:33:21;1.77;;;1.10;;
65459;SDS011;52058;49.822;6.754;2023-07-29T10:35:48;1.23;;;1.10;;
65459;SDS011;52058;49.822;6.754;2023-07-29T10:38:15;2.13;;;1.15;;
65459;SDS011;52058;49.822;6.754;2023-07-29T10:40:45;1.00;;;0.90;;
65459;SDS011;52058;49.822;6.754;2023-07-29T10:43:18;1.00;;;1.00;;
65459;SDS011;52058;49.822;6.754;2023-07-29T10:45:50;3.67;;;1.20;;
65459;SDS011;52058;49.822;6.754;2023-07-29T10:53:48;1.48;;;1.10;;
65459;SDS011;52058;49.822;6.754;2023-07-29T10:56:23;2.35;;;1.38;;
65459;SDS011;52058;49.822;6.754;2023-07-29T10:58:52;1.23;;;1.10;;
65459;SDS011;52058;49.822;6.754;2023-07-29T11:01:26;1.90;;;1.17;;
65459;SDS011;52058;49.822;6.754;2023-07-29T11:10:01;1.15;;;1.05;;
65459;SDS011;52058;49.822;6.754;2023-07-29T11:12:36;2.45;;;1.30;;
65459;SDS011;52058;49.822;6.754;2023-07-29T11:15:04;1.75;;;1.30;;
65459;SDS011;52058;49.822;6.754;2023-07-29T11:17:39;2.72;;;1.30;;
65459;SDS011;52058;49.822;6.754;2023-07-29T11:20:09;2.75;;;1.40;;
65459;SDS011;52058;49.822;6.754;2023-07-29T11:22:37;1.52;;;1.20;;
65459;SDS011;52058;49.822;6.754;2023-07-29T11:25:04;1.58;;;1.30;;
65459;SDS011;52058;49.822;6.754;2023-07-29T11:27:31;1.55;;;1.25;;
65459;SDS011;52058;49.822;6.754;2023-07-29T11:29:58;1.58;;;1.40;;
65459;SDS011;52058;49.822;6.754;2023-07-29T11:32:26;1.67;;;1.50;;
65459;SDS011;52058;49.822;6.754;2023-07-29T11:34:53;1.33;;;1.20;;
65459;SDS011;52058;49.822;6.754;2023-07-29T11:37:21;2.20;;;1.27;;
65459;SDS011;52058;49.822;6.754;2023-07-29T11:39:48;2.42;;;1.23;;
65459;SDS011;52058;49.822;6.754;2023-07-29T11:42:16;2.28;;;1.33;;
65459;SDS011;52058;49.822;6.754;2023-07-29T11:44:43;1.77;;;1.48;;
65459;SDS011;52058;49.822;6.754;2023-07-29T11:47:10;1.13;;;1.00;;
65459;SDS011;52058;49.822;6.754;2023-07-29T11:49:38;1.73;;;1.20;;
65459;SDS011;52058;49.822;6.754;2023-07-29T11:52:06;1.63;;;1.13;;
65459;SDS011;52058;49.822;6.754;2023-07-29T11:54:35;1.23;;;1.10;;
65459;SDS011;52058;49.822;6.754;2023-07-29T11:57:03;1.40;;;1.02;;
65459;SDS011;52058;49.822;6.754;2023-07-29T11:59:32;2.10;;;1.13;;
65459;SDS011;52058;49.822;6.754;2023-07-29T12:02:00;1.30;;;1.15;;
65459;SDS011;52058;49.822;6.754;2023-07-29T12:04:27;1.75;;;1.10;;
65459;SDS011;52058;49.822;6.754;2023-07-29T12:06:54;1.42;;;1.10;;
65459;SDS011;52058;49.822;6.754;2023-07-29T12:09:22;1.83;;;1.10;;
65459;SDS011;52058;49.822;6.754;2023-07-29T12:11:50;1.60;;;1.00;;
65459;SDS011;52058;49.822;6.754;2023-07-29T12:14:17;1.20;;;1.10;;
65459;SDS011;52058;49.822;6.754;2023-07-29T12:16:44;2.00;;;1.20;;
65459;SDS011;52058;49.822;6.754;2023-07-29T12:19:11;1.48;;;1.23;;
65459;SDS011;52058;49.822;6.754;2023-07-29T12:21:38;1.58;;;1.05;;
65459;SDS011;52058;49.822;6.754;2023-07-29T12:24:06;1.45;;;1.30;;
65459;SDS011;52058;49.822;6.754;2023-07-29T12:26:33;2.35;;;0.98;;
65459;SDS011;52058;49.822;6.754;2023-07-29T12:29:11;1.35;;;1.20;;
65459;SDS011;52058;49.822;6.754;2023-07-29T12:31:38;1.92;;;1.25;;
65459;SDS011;52058;49.822;6.754;2023-07-29T12:34:05;4.00;;;1.65;;
65459;SDS011;52058;49.822;6.754;2023-07-29T12:36:42;1.98;;;1.10;;
65459;SDS011;52058;49.822;6.754;2023-07-29T12:39:15;1.23;;;1.00;;
65459;SDS011;52058;49.822;6.754;2023-07-29T12:41:43;1.63;;;1.33;;
65459;SDS011;52058;49.822;6.754;2023-07-29T12:44:11;1.30;;;1.20;;
65459;SDS011;52058;49.822;6.754;2023-07-29T12:46:38;1.33;;;1.20;;
65459;SDS011;52058;49.822;6.754;2023-07-29T12:49:05;1.38;;;1.27;;
65459;SDS011;52058;49.822;6.754;2023-07-29T12:51:31;1.67;;;1.10;;
65459;SDS011;52058;49.822;6.754;2023-07-29T12:53:59;1.20;;;1.10;;
65459;SDS011;52058;49.822;6.754;2023-07-29T12:56:26;1.40;;;1.30;;
65459;SDS011;52058;49.822;6.754;2023-07-29T12:58:52;1.50;;;1.27;;
65459;SDS011;52058;49.822;6.754;2023-07-29T13:01:20;2.70;;;1.50;;
65459;SDS011;52058;49.822;6.754;2023-07-29T13:03:47;1.20;;;0.90;;
65459;SDS011;52058;49.822;6.754;2023-07-29T13:06:14;1.58;;;1.10;;
65459;SDS011;52058;49.822;6.754;2023-07-29T13:08:41;1.83;;;1.25;;
65459;SDS011;52058;49.822;6.754;2023-07-29T13:11:08;2.65;;;1.33;;
65459;SDS011;52058;49.822;6.754;2023-07-29T13:13:35;1.67;;;1.58;;
65459;SDS011;52058;49.822;6.754;2023-07-29T13:16:02;1.05;;;1.00;;
65459;SDS011;52058;49.822;6.754;2023-07-29T13:18:30;1.85;;;1.20;;
65459;SDS011;52058;49.822;6.754;2023-07-29T13:20:56;1.30;;;1.20;;
65459;SDS011;52058;49.822;6.754;2023-07-29T13:23:23;2.97;;;1.20;;
65459;SDS011;52058;49.822;6.754;2023-07-29T13:25:50;1.73;;;1.25;;
65459;SDS011;52058;49.822;6.754;2023-07-29T13:28:17;2.03;;;1.10;;
65459;SDS011;52058;49.822;6.754;2023-07-29T13:30:44;2.45;;;1.33;;
65459;SDS011;52058;49.822;6.754;2023-07-29T13:33:11;1.40;;;1.30;;
65459;SDS011;52058;49.822;6.754;2023-07-29T13:35:39;1.40;;;1.30;;
65459;SDS011;52058;49.822;6.754;2023-07-29T13:38:05;2.28;;;1.10;;
65459;SDS011;52058;49.822;6.754;2023-07-29T13:40:32;1.30;;;1.20;;
65459;SDS011;52058;49.822;6.754;2023-07-29T13:42:58;1.50;;;1.40;;
65459;SDS011;52058;49.822;6.754;2023-07-29T13:45:25;1.50;;;1.40;;
65459;SDS011;52058;49.822;6.754;2023-07-29T13:47:52;2.47;;;1.45;;
65459;SDS011;52058;49.822;6.754;2023-07-29T13:50:18;1.35;;;1.10;;
65459;SDS011;52058;49.822;6.754;2023-07-29T13:52:46;1.05;;;0.93;;
65459;SDS011;52058;49.822;6.754;2023-07-29T13:55:13;0.95;;;0.88;;
65459;SDS011;52058;49.822;6.754;2023-07-29T13:57:40;1.45;;;1.00;;
65459;SDS011;52058;49.822;6.754;2023-07-29T14:00:06;1.30;;;1.20;;
65459;SDS011;52058;49.822;6.754;2023-07-29T14:02:34;1.20;;;1.10;;
65459;SDS011;52058;49.822;6.754;2023-07-29T14:05:00;1.50;;;1.40;;
65459;SDS011;52058;49.822;6.754;2023-07-29T14:07:27;1.38;;;1.15;;
65459;SDS011;52058;49.822;6.754;2023-07-29T14:09:55;1.50;;;1.20;;
65459;SDS011;52058;49.822;6.754;2023-07-29T14:12:21;1.65;;;1.08;;
65459;SDS011;52058;49.822;6.754;2023-07-29T14:14:48;1.05;;;0.90;;
65459;SDS011;52058;49.822;6.754;2023-07-29T14:17:15;2.15;;;1.20;;
65459;SDS011;52058;49.822;6.754;2023-07-29T14:19:41;1.80;;;1.40;;
65459;SDS011;52058;49.822;6.754;2023-07-29T14:22:08;1.42;;;1.30;;
65459;SDS011;52058;49.822;6.754;2023-07-29T14:24:34;1.20;;;0.98;;
65459;SDS011;52058;49.822;6.754;2023-07-29T14:27:02;1.70;;;1.20;;
65459;SDS011;52058;49.822;6.754;2023-07-29T14:29:29;1.20;;;1.10;;
65459;SDS011;52058;49.822;6.754;2023-07-29T14:31:56;1.38;;;0.90;;
65459;SDS011;52058;49.822;6.754;2023-07-29T14:34:22;1.30;;;1.10;;
65459;SDS011;52058;49.822;6.754;2023-07-29T14:36:49;2.08;;;1.10;;
65459;SDS011;52058;49.822;6.754;2023-07-29T14:39:15;3.03;;;1.17;;
65459;SDS011;52058;49.822;6.754;2023-07-29T14:41:42;1.08;;;1.00;;
65459;SDS011;52058;49.822;6.754;2023-07-29T14:44:10;1.00;;;0.82;;
65459;SDS011;52058;49.822;6.754;2023-07-29T14:46:36;1.95;;;1.10;;
65459;SDS011;52058;49.822;6.754;2023-07-29T14:49:03;1.60;;;1.13;;
65459;SDS011;52058;49.822;6.754;2023-07-29T14:51:29;1.90;;;1.25;;
65459;SDS011;52058;49.822;6.754;2023-07-29T14:53:56;1.25;;;1.15;;
65459;SDS011;52058;49.822;6.754;2023-07-29T14:56:22;1.42;;;1.00;;
65459;SDS011;52058;49.822;6.754;2023-07-29T14:58:49;1.42;;;1.33;;
65459;SDS011;52058;49.822;6.754;2023-07-29T15:01:17;2.25;;;1.20;;
65459;SDS011;52058;49.822;6.754;2023-07-29T15:03:44;1.15;;;1.00;;